sensor_id;sensor_type;location;lat;lon;timestamp;P1;durP1;ratioP1;P2;durP2;ratioP2
60225;SDS011;46090;48.436;11.410;2024-02-16T13:06:07;4.38;;;0.90;;
60225;SDS011;46090;48.436;11.410;2024-02-16T13:08:35;4.03;;;0.90;;
60225;SDS011;46090;48.436;11.410;2024-02-16T13:11:02;2.72;;;0.98;;
60225;SDS011;46090;48.436;11.410;2024-02-16T13:13:29;5.47;;;1.10;;
60225;SDS011;46090;48.436;11.410;2024-02-16T13:15:56;3.60;;;0.98;;
60225;SDS011;46090;48.436;11.410;2024-02-16T13:18:25;3.15;;;0.95;;
60225;SDS011;46090;48.436;11.410;2024-02-16T13:20:52;3.83;;;1.13;;
60225;SDS011;46090;48.436;11.410;2024-02-16T13:23:19;2.90;;;1.00;;
60225;SDS011;46090;48.436;11.410;2024-02-16T13:25:46;4.05;;;1.00;;
60225;SDS011;46090;48.436;11.410;2024-02-16T13:28:13;4.07;;;1.02;;
60225;SDS011;46090;48.436;11.410;2024-02-16T13:30:40;4.57;;;1.17;;
60225;SDS011;46090;48.436;11.410;2024-02-16T13:33:07;5.75;;;1.20;;
60225;SDS011;46090;48.436;11.410;2024-02-16T13:35:35;7.63;;;1.63;;
60225;SDS011;46090;48.436;11.410;2024-02-16T13:38:03;3.80;;;1.35;;
60225;SDS011;46090;48.436;11.410;2024-02-16T13:40:30;5.75;;;1.35;;
60225;SDS011;46090;48.436;11.410;2024-02-16T13:42:57;4.22;;;1.60;;
60225;SDS011;46090;48.436;11.410;2024-02-16T13:45:28;3.60;;;1.30;;
60225;SDS011;46090;48.436;11.410;2024-02-16T13:47:56;6.93;;;1.48;;
60225;SDS011;46090;48.436;11.410;2024-02-16T13:50:23;5.47;;;1.67;;
60225;SDS011;46090;48.436;11.410;2024-02-16T13:52:50;5.68;;;1.65;;
60225;SDS011;46090;48.436;11.410;2024-02-16T13:55:17;4.10;;;1.65;;
60225;SDS011;46090;48.436;11.410;2024-02-16T13:57:43;5.53;;;1.73;;
60225;SDS011;46090;48.436;11.410;2024-02-16T14:00:10;4.47;;;1.52;;
60225;SDS011;46090;48.436;11.410;2024-02-16T14:02:37;3.92;;;1.48;;
60225;SDS011;46090;48.436;11.410;2024-02-16T14:05:04;7.03;;;1.85;;
60225;SDS011;46090;48.436;11.410;2024-02-16T14:07:31;5.25;;;1.60;;
60225;SDS011;46090;48.436;11.410;2024-02-16T14:10:08;4.38;;;1.60;;
60225;SDS011;46090;48.436;11.410;2024-02-16T14:12:35;4.75;;;1.60;;
60225;SDS011;46090;48.436;11.410;2024-02-16T14:15:02;4.63;;;1.52;;
60225;SDS011;46090;48.436;11.410;2024-02-16T14:17:29;6.28;;;2.05;;
60225;SDS011;46090;48.436;11.410;2024-02-16T14:19:56;4.90;;;1.40;;
60225;SDS011;46090;48.436;11.410;2024-02-16T14:22:23;4.43;;;1.50;;
60225;SDS011;46090;48.436;11.410;2024-02-16T14:24:50;4.45;;;1.35;;
60225;SDS011;46090;48.436;11.410;2024-02-16T14:27:17;5.63;;;1.65;;
60225;SDS011;46090;48.436;11.410;2024-02-16T14:29:43;7.07;;;1.75;;
60225;SDS011;46090;48.436;11.410;2024-02-16T14:32:10;4.07;;;1.42;;
60225;SDS011;46090;48.436;11.410;2024-02-16T14:34:37;5.13;;;1.40;;
60225;SDS011;46090;48.436;11.410;2024-02-16T14:37:04;4.35;;;1.58;;
60225;SDS011;46090;48.436;11.410;2024-02-16T14:39:30;5.97;;;1.92;;
60225;SDS011;46090;48.436;11.410;2024-02-16T14:41:57;4.13;;;1.23;;
60225;SDS011;46090;48.436;11.410;2024-02-16T14:44:25;3.40;;;1.48;;
60225;SDS011;46090;48.436;11.410;2024-02-16T14:46:52;4.30;;;1.45;;
60225;SDS011;46090;48.436;11.410;2024-02-16T14:49:19;8.68;;;1.50;;
60225;SDS011;46090;48.436;11.410;2024-02-16T14:51:48;4.93;;;1.70;;
60225;SDS011;46090;48.436;11.410;2024-02-16T14:54:15;5.68;;;1.60;;
60225;SDS011;46090;48.436;11.410;2024-02-16T14:56:42;6.32;;;1.73;;
60225;SDS011;46090;48.436;11.410;2024-02-16T14:59:09;4.40;;;1.30;;
60225;SDS011;46090;48.436;11.410;2024-02-16T15:01:36;7.82;;;1.52;;
60225;SDS011;46090;48.436;11.410;2024-02-16T15:04:04;5.78;;;1.73;;
60225;SDS011;46090;48.436;11.410;2024-02-16T15:06:31;4.25;;;1.20;;
60225;SDS011;46090;48.436;11.410;2024-02-16T15:08:59;3.75;;;1.20;;
60225;SDS011;46090;48.436;11.410;2024-02-16T15:11:26;4.40;;;1.38;;
60225;SDS011;46090;48.436;11.410;2024-02-16T15:13:53;5.28;;;1.10;;
60225;SDS011;46090;48.436;11.410;2024-02-16T15:16:20;5.00;;;1.52;;
60225;SDS011;46090;48.436;11.410;2024-02-16T15:18:47;4.53;;;1.60;;
60225;SDS011;46090;48.436;11.410;2024-02-16T15:21:14;4.25;;;1.27;;
60225;SDS011;46090;48.436;11.410;2024-02-16T15:23:41;3.50;;;1.30;;
60225;SDS011;46090;48.436;11.410;2024-02-16T15:26:11;5.65;;;1.52;;
60225;SDS011;46090;48.436;11.410;2024-02-16T15:28:37;4.63;;;1.30;;
60225;SDS011;46090;48.436;11.410;2024-02-16T15:31:04;4.25;;;1.40;;
60225;SDS011;46090;48.436;11.410;2024-02-16T15:33:31;4.63;;;1.30;;
60225;SDS011;46090;48.436;11.410;2024-02-16T15:35:58;5.07;;;1.38;;
60225;SDS011;46090;48.436;11.410;2024-02-16T15:38:25;5.28;;;1.48;;
60225;SDS011;46090;48.436;11.410;2024-02-16T15:40:51;5.15;;;2.05;;
60225;SDS011;46090;48.436;11.410;2024-02-16T15:43:18;4.75;;;1.55;;
60225;SDS011;46090;48.436;11.410;2024-02-16T15:45:45;4.70;;;1.77;;
60225;SDS011;46090;48.436;11.410;2024-02-16T15:48:13;3.92;;;1.30;;
60225;SDS011;46090;48.436;11.410;2024-02-16T15:50:42;4.68;;;1.30;;
60225;SDS011;46090;48.436;11.410;2024-02-16T15:53:08;3.80;;;1.10;;
60225;SDS011;46090;48.436;11.410;2024-02-16T15:55:35;9.00;;;1.92;;
60225;SDS011;46090;48.436;11.410;2024-02-16T15:58:02;3.40;;;1.17;;
60225;SDS011;46090;48.436;11.410;2024-02-16T16:00:29;11.43;;;3.97;;
60225;SDS011;46090;48.436;11.410;2024-02-16T16:02:56;4.00;;;1.70;;
60225;SDS011;46090;48.436;11.410;2024-02-16T16:05:22;7.80;;;3.97;;
60225;SDS011;46090;48.436;11.410;2024-02-16T16:07:50;7.25;;;1.85;;
60225;SDS011;46090;48.436;11.410;2024-02-16T16:10:17;4.68;;;2.15;;
60225;SDS011;46090;48.436;11.410;2024-02-16T16:12:43;4.40;;;1.40;;
60225;SDS011;46090;48.436;11.410;2024-02-16T16:15:10;3.60;;;1.35;;
60225;SDS011;46090;48.436;11.410;2024-02-16T16:17:37;6.72;;;2.05;;
60225;SDS011;46090;48.436;11.410;2024-02-16T16:20:05;9.60;;;4.03;;
60225;SDS011;46090;48.436;11.410;2024-02-16T16:22:32;5.45;;;2.70;;
60225;SDS011;46090;48.436;11.410;2024-02-16T16:24:59;8.15;;;4.50;;
60225;SDS011;46090;48.436;11.410;2024-02-16T16:27:25;7.90;;;4.03;;
60225;SDS011;46090;48.436;11.410;2024-02-16T16:29:52;13.48;;;8.43;;
60225;SDS011;46090;48.436;11.410;2024-02-16T16:32:19;7.63;;;3.13;;
60225;SDS011;46090;48.436;11.410;2024-02-16T16:34:46;4.30;;;1.90;;
60225;SDS011;46090;48.436;11.410;2024-02-16T16:37:13;7.40;;;2.90;;
60225;SDS011;46090;48.436;11.410;2024-02-16T16:39:39;6.75;;;3.67;;
60225;SDS011;46090;48.436;11.410;2024-02-16T16:42:06;5.35;;;2.00;;
60225;SDS011;46090;48.436;11.410;2024-02-16T16:44:34;8.13;;;3.10;;
60225;SDS011;46090;48.436;11.410;2024-02-16T16:47:01;12.15;;;6.65;;
60225;SDS011;46090;48.436;11.410;2024-02-16T16:49:28;5.35;;;2.50;;
60225;SDS011;46090;48.436;11.410;2024-02-16T16:51:55;5.32;;;2.30;;
60225;SDS011;46090;48.436;11.410;2024-02-16T16:54:22;4.95;;;2.30;;
60225;SDS011;46090;48.436;11.410;2024-02-16T16:56:48;4.70;;;2.22;;
60225;SDS011;46090;48.436;11.410;2024-02-16T16:59:16;6.82;;;2.90;;
60225;SDS011;46090;48.436;11.410;2024-02-16T17:01:45;6.18;;;2.50;;
60225;SDS011;46090;48.436;11.410;2024-02-16T17:04:12;6.68;;;2.50;;
60225;SDS011;46090;48.436;11.410;2024-02-16T17:06:39;5.18;;;2.10;;
60225;SDS011;46090;48.436;11.410;2024-02-16T17:09:06;6.32;;;3.00;;
60225;SDS011;46090;48.436;11.410;2024-02-16T17:11:36;7.55;;;3.15;;
60225;SDS011;46090;48.436;11.410;2024-02-16T17:14:05;7.07;;;2.92;;
60225;SDS011;46090;48.436;11.410;2024-02-16T17:16:34;8.95;;;3.22;;
60225;SDS011;46090;48.436;11.410;2024-02-16T17:19:01;10.43;;;2.95;;
60225;SDS011;46090;48.436;11.410;2024-02-16T17:21:29;6.65;;;3.30;;
60225;SDS011;46090;48.436;11.410;2024-02-16T17:23:57;7.22;;;3.67;;
60225;SDS011;46090;48.436;11.410;2024-02-16T17:26:24;11.15;;;3.60;;
60225;SDS011;46090;48.436;11.410;2024-02-16T17:28:51;8.98;;;2.47;;
60225;SDS011;46090;48.436;11.410;2024-02-16T17:31:18;8.98;;;2.78;;
60225;SDS011;46090;48.436;11.410;2024-02-16T17:33:44;7.25;;;3.30;;
60225;SDS011;46090;48.436;11.410;2024-02-16T17:36:11;9.05;;;3.70;;
60225;SDS011;46090;48.436;11.410;2024-02-16T17:38:39;13.00;;;4.20;;
60225;SDS011;46090;48.436;11.410;2024-02-16T17:41:05;11.88;;;4.72;;
60225;SDS011;46090;48.436;11.410;2024-02-16T17:43:32;10.43;;;5.72;;
60225;SDS011;46090;48.436;11.410;2024-02-16T17:46:00;9.93;;;6.38;;
60225;SDS011;46090;48.436;11.410;2024-02-16T17:48:27;10.98;;;5.80;;
60225;SDS011;46090;48.436;11.410;2024-02-16T17:50:57;11.38;;;7.53;;
60225;SDS011;46090;48.436;11.410;2024-02-16T17:53:24;9.85;;;5.22;;
60225;SDS011;46090;48.436;11.410;2024-02-16T17:55:51;9.05;;;4.38;;
60225;SDS011;46090;48.436;11.410;2024-02-16T17:58:17;7.90;;;4.55;;
60225;SDS011;46090;48.436;11.410;2024-02-16T18:00:44;11.13;;;3.95;;
60225;SDS011;46090;48.436;11.410;2024-02-16T18:03:11;16.67;;;4.40;;
60225;SDS011;46090;48.436;11.410;2024-02-16T18:05:38;8.80;;;3.97;;
60225;SDS011;46090;48.436;11.410;2024-02-16T18:08:04;10.48;;;4.25;;
60225;SDS011;46090;48.436;11.410;2024-02-16T18:10:31;8.95;;;4.18;;
60225;SDS011;46090;48.436;11.410;2024-02-16T18:12:59;7.68;;;4.05;;
60225;SDS011;46090;48.436;11.410;2024-02-16T18:15:26;7.20;;;3.58;;
60225;SDS011;46090;48.436;11.410;2024-02-16T18:17:53;8.18;;;3.80;;
60225;SDS011;46090;48.436;11.410;2024-02-16T18:20:21;10.55;;;3.65;;
60225;SDS011;46090;48.436;11.410;2024-02-16T18:22:48;7.60;;;3.47;;
60225;SDS011;46090;48.436;11.410;2024-02-16T18:25:15;8.85;;;3.75;;
60225;SDS011;46090;48.436;11.410;2024-02-16T18:27:41;8.48;;;3.40;;
60225;SDS011;46090;48.436;11.410;2024-02-16T18:30:08;8.48;;;4.22;;
60225;SDS011;46090;48.436;11.410;2024-02-16T18:32:37;9.85;;;4.45;;
60225;SDS011;46090;48.436;11.410;2024-02-16T18:35:04;8.40;;;4.20;;
60225;SDS011;46090;48.436;11.410;2024-02-16T18:37:31;6.50;;;3.80;;
60225;SDS011;46090;48.436;11.410;2024-02-16T18:39:58;7.40;;;3.80;;
60225;SDS011;46090;48.436;11.410;2024-02-16T18:42:24;8.80;;;3.83;;
60225;SDS011;46090;48.436;11.410;2024-02-16T18:44:51;7.95;;;3.92;;
60225;SDS011;46090;48.436;11.410;2024-02-16T18:47:18;7.72;;;3.80;;
60225;SDS011;46090;48.436;11.410;2024-02-16T18:49:45;8.35;;;4.20;;
60225;SDS011;46090;48.436;11.410;2024-02-16T18:52:14;8.43;;;3.88;;
60225;SDS011;46090;48.436;11.410;2024-02-16T18:54:41;8.43;;;4.15;;
60225;SDS011;46090;48.436;11.410;2024-02-16T18:57:08;8.25;;;4.05;;
60225;SDS011;46090;48.436;11.410;2024-02-16T18:59:35;7.68;;;4.00;;
60225;SDS011;46090;48.436;11.410;2024-02-16T19:02:02;9.18;;;3.97;;
60225;SDS011;46090;48.436;11.410;2024-02-16T19:04:29;7.78;;;4.40;;
60225;SDS011;46090;48.436;11.410;2024-02-16T19:06:56;9.70;;;4.25;;
60225;SDS011;46090;48.436;11.410;2024-02-16T19:09:23;10.20;;;5.20;;
60225;SDS011;46090;48.436;11.410;2024-02-16T19:11:50;14.63;;;5.30;;
60225;SDS011;46090;48.436;11.410;2024-02-16T19:14:16;8.32;;;4.43;;
60225;SDS011;46090;48.436;11.410;2024-02-16T19:16:44;9.23;;;4.30;;
60225;SDS011;46090;48.436;11.410;2024-02-16T19:19:11;7.45;;;4.20;;
60225;SDS011;46090;48.436;11.410;2024-02-16T19:21:40;7.82;;;4.25;;
60225;SDS011;46090;48.436;11.410;2024-02-16T19:24:07;8.93;;;4.30;;
60225;SDS011;46090;48.436;11.410;2024-02-16T19:26:35;6.68;;;4.05;;
60225;SDS011;46090;48.436;11.410;2024-02-16T19:29:06;7.68;;;4.15;;
60225;SDS011;46090;48.436;11.410;2024-02-16T19:31:33;9.30;;;4.40;;
60225;SDS011;46090;48.436;11.410;2024-02-16T19:34:00;8.50;;;4.20;;
60225;SDS011;46090;48.436;11.410;2024-02-16T19:36:27;11.15;;;4.60;;
60225;SDS011;46090;48.436;11.410;2024-02-16T19:38:54;9.23;;;4.18;;
60225;SDS011;46090;48.436;11.410;2024-02-16T19:41:24;8.60;;;4.05;;
60225;SDS011;46090;48.436;11.410;2024-02-16T19:43:51;6.85;;;3.75;;
60225;SDS011;46090;48.436;11.410;2024-02-16T19:46:18;9.02;;;4.45;;
60225;SDS011;46090;48.436;11.410;2024-02-16T19:48:44;8.15;;;4.20;;
60225;SDS011;46090;48.436;11.410;2024-02-16T19:51:11;7.55;;;3.85;;
60225;SDS011;46090;48.436;11.410;2024-02-16T19:53:38;9.25;;;3.85;;
60225;SDS011;46090;48.436;11.410;2024-02-16T19:56:05;8.25;;;3.90;;
60225;SDS011;46090;48.436;11.410;2024-02-16T19:58:32;8.40;;;4.45;;
60225;SDS011;46090;48.436;11.410;2024-02-16T20:00:59;8.75;;;3.88;;
60225;SDS011;46090;48.436;11.410;2024-02-16T20:03:26;6.43;;;3.17;;
60225;SDS011;46090;48.436;11.410;2024-02-16T20:05:52;6.72;;;3.00;;
60225;SDS011;46090;48.436;11.410;2024-02-16T20:08:19;9.68;;;4.53;;
60225;SDS011;46090;48.436;11.410;2024-02-16T20:10:46;9.35;;;3.42;;
60225;SDS011;46090;48.436;11.410;2024-02-16T20:13:13;7.90;;;3.40;;
60225;SDS011;46090;48.436;11.410;2024-02-16T20:15:40;8.23;;;3.20;;
60225;SDS011;46090;48.436;11.410;2024-02-16T20:18:07;8.98;;;3.92;;
60225;SDS011;46090;48.436;11.410;2024-02-16T20:20:33;7.07;;;3.63;;
60225;SDS011;46090;48.436;11.410;2024-02-16T20:23:02;13.52;;;4.80;;
60225;SDS011;46090;48.436;11.410;2024-02-16T20:25:28;8.80;;;4.10;;
60225;SDS011;46090;48.436;11.410;2024-02-16T20:27:57;7.72;;;3.92;;
60225;SDS011;46090;48.436;11.410;2024-02-16T20:30:26;7.68;;;4.15;;
60225;SDS011;46090;48.436;11.410;2024-02-16T20:32:54;12.77;;;4.47;;
60225;SDS011;46090;48.436;11.410;2024-02-16T20:35:22;8.05;;;3.85;;
60225;SDS011;46090;48.436;11.410;2024-02-16T20:37:50;8.63;;;4.38;;
60225;SDS011;46090;48.436;11.410;2024-02-16T20:40:16;10.95;;;3.80;;
60225;SDS011;46090;48.436;11.410;2024-02-16T20:42:43;8.77;;;4.55;;
60225;SDS011;46090;48.436;11.410;2024-02-16T20:45:12;8.02;;;4.60;;
60225;SDS011;46090;48.436;11.410;2024-02-16T20:47:41;9.50;;;4.38;;
60225;SDS011;46090;48.436;11.410;2024-02-16T20:50:09;10.27;;;5.55;;
60225;SDS011;46090;48.436;11.410;2024-02-16T20:52:36;11.50;;;5.65;;
60225;SDS011;46090;48.436;11.410;2024-02-16T20:55:03;9.88;;;6.00;;
60225;SDS011;46090;48.436;11.410;2024-02-16T20:57:31;8.95;;;5.78;;
60225;SDS011;46090;48.436;11.410;2024-02-16T20:59:57;11.38;;;5.40;;
60225;SDS011;46090;48.436;11.410;2024-02-16T21:02:24;9.95;;;5.47;;
60225;SDS011;46090;48.436;11.410;2024-02-16T21:04:53;8.95;;;5.32;;
60225;SDS011;46090;48.436;11.410;2024-02-16T21:07:19;9.68;;;5.65;;
60225;SDS011;46090;48.436;11.410;2024-02-16T21:09:46;10.98;;;5.88;;
60225;SDS011;46090;48.436;11.410;2024-02-16T21:12:14;9.77;;;5.93;;
60225;SDS011;46090;48.436;11.410;2024-02-16T21:14:40;11.57;;;6.70;;
60225;SDS011;46090;48.436;11.410;2024-02-16T21:17:08;11.27;;;6.70;;
60225;SDS011;46090;48.436;11.410;2024-02-16T21:19:34;11.85;;;7.38;;
60225;SDS011;46090;48.436;11.410;2024-02-16T21:22:01;14.43;;;7.72;;
60225;SDS011;46090;48.436;11.410;2024-02-16T21:24:28;11.95;;;7.00;;
60225;SDS011;46090;48.436;11.410;2024-02-16T21:26:56;10.90;;;6.75;;
60225;SDS011;46090;48.436;11.410;2024-02-16T21:29:24;10.05;;;7.07;;
60225;SDS011;46090;48.436;11.410;2024-02-16T21:31:50;14.77;;;8.18;;
60225;SDS011;46090;48.436;11.410;2024-02-16T21:34:17;11.68;;;6.57;;
60225;SDS011;46090;48.436;11.410;2024-02-16T21:36:44;10.43;;;6.82;;
60225;SDS011;46090;48.436;11.410;2024-02-16T21:39:11;11.32;;;6.95;;
60225;SDS011;46090;48.436;11.410;2024-02-16T21:41:38;14.07;;;8.38;;
60225;SDS011;46090;48.436;11.410;2024-02-16T21:44:05;11.00;;;7.90;;
60225;SDS011;46090;48.436;11.410;2024-02-16T21:46:33;12.85;;;8.70;;
60225;SDS011;46090;48.436;11.410;2024-02-16T21:49:02;14.07;;;8.40;;
60225;SDS011;46090;48.436;11.410;2024-02-16T21:51:30;12.65;;;7.38;;
60225;SDS011;46090;48.436;11.410;2024-02-16T21:53:59;10.77;;;6.90;;
60225;SDS011;46090;48.436;11.410;2024-02-16T21:56:27;12.30;;;7.10;;
60225;SDS011;46090;48.436;11.410;2024-02-16T21:58:54;10.40;;;6.63;;
60225;SDS011;46090;48.436;11.410;2024-02-16T22:01:22;11.00;;;6.22;;
60225;SDS011;46090;48.436;11.410;2024-02-16T22:03:49;11.63;;;6.45;;
60225;SDS011;46090;48.436;11.410;2024-02-16T22:06:18;9.60;;;5.75;;
60225;SDS011;46090;48.436;11.410;2024-02-16T22:08:52;9.68;;;5.80;;
60225;SDS011;46090;48.436;11.410;2024-02-16T22:11:23;9.80;;;5.72;;
60225;SDS011;46090;48.436;11.410;2024-02-16T22:13:50;13.63;;;6.03;;
60225;SDS011;46090;48.436;11.410;2024-02-16T22:16:17;10.40;;;5.82;;
60225;SDS011;46090;48.436;11.410;2024-02-16T22:18:45;10.50;;;6.20;;
60225;SDS011;46090;48.436;11.410;2024-02-16T22:21:14;11.43;;;6.57;;
60225;SDS011;46090;48.436;11.410;2024-02-16T22:23:42;10.15;;;5.80;;
60225;SDS011;46090;48.436;11.410;2024-02-16T22:26:09;12.18;;;6.40;;
60225;SDS011;46090;48.436;11.410;2024-02-16T22:28:36;10.68;;;6.35;;
60225;SDS011;46090;48.436;11.410;2024-02-16T22:31:03;12.30;;;7.10;;
60225;SDS011;46090;48.436;11.410;2024-02-16T22:33:30;11.80;;;7.25;;
60225;SDS011;46090;48.436;11.410;2024-02-16T22:35:58;10.50;;;6.72;;
60225;SDS011;46090;48.436;11.410;2024-02-16T22:38:26;11.85;;;6.60;;
60225;SDS011;46090;48.436;11.410;2024-02-16T22:40:54;10.57;;;6.85;;
60225;SDS011;46090;48.436;11.410;2024-02-16T22:43:21;10.65;;;5.78;;
60225;SDS011;46090;48.436;11.410;2024-02-16T22:45:49;10.50;;;6.32;;
60225;SDS011;46090;48.436;11.410;2024-02-16T22:48:16;12.10;;;6.85;;
60225;SDS011;46090;48.436;11.410;2024-02-16T22:50:44;11.48;;;6.43;;
60225;SDS011;46090;48.436;11.410;2024-02-16T22:53:11;14.13;;;6.55;;
60225;SDS011;46090;48.436;11.410;2024-02-16T22:55:38;12.27;;;6.55;;
60225;SDS011;46090;48.436;11.410;2024-02-16T22:58:05;11.23;;;6.70;;
60225;SDS011;46090;48.436;11.410;2024-02-16T23:00:34;10.55;;;6.65;;
60225;SDS011;46090;48.436;11.410;2024-02-16T23:03:07;12.73;;;6.57;;
60225;SDS011;46090;48.436;11.410;2024-02-16T23:05:38;13.02;;;6.82;;
60225;SDS011;46090;48.436;11.410;2024-02-16T23:08:05;12.55;;;6.05;;
60225;SDS011;46090;48.436;11.410;2024-02-16T23:10:35;11.00;;;6.15;;
60225;SDS011;46090;48.436;11.410;2024-02-16T23:13:04;11.73;;;5.53;;
60225;SDS011;46090;48.436;11.410;2024-02-16T23:15:31;9.80;;;5.90;;
60225;SDS011;46090;48.436;11.410;2024-02-16T23:18:00;10.50;;;6.53;;
60225;SDS011;46090;48.436;11.410;2024-02-16T23:20:28;9.07;;;5.82;;
60225;SDS011;46090;48.436;11.410;2024-02-16T23:25:29;12.10;;;6.55;;
60225;SDS011;46090;48.436;11.410;2024-02-16T23:27:56;10.32;;;6.38;;
60225;SDS011;46090;48.436;11.410;2024-02-16T23:30:24;11.60;;;7.40;;
60225;SDS011;46090;48.436;11.410;2024-02-16T23:32:51;13.15;;;7.55;;
60225;SDS011;46090;48.436;11.410;2024-02-16T23:35:19;11.68;;;7.13;;
60225;SDS011;46090;48.436;11.410;2024-02-16T23:37:50;13.13;;;7.45;;
60225;SDS011;46090;48.436;11.410;2024-02-16T23:40:17;13.23;;;7.50;;
60225;SDS011;46090;48.436;11.410;2024-02-16T23:42:44;16.15;;;8.50;;
60225;SDS011;46090;48.436;11.410;2024-02-16T23:45:15;13.80;;;7.82;;
60225;SDS011;46090;48.436;11.410;2024-02-16T23:47:45;14.80;;;7.68;;
60225;SDS011;46090;48.436;11.410;2024-02-16T23:50:12;14.85;;;8.38;;
60225;SDS011;46090;48.436;11.410;2024-02-16T23:52:40;11.48;;;7.13;;
60225;SDS011;46090;48.436;11.410;2024-02-16T23:55:08;13.32;;;7.65;;
60225;SDS011;46090;48.436;11.410;2024-02-16T23:57:36;13.30;;;8.63;;
